createdAt,value
2023-03-16T00:00:14.140Z,8.3
2023-03-16T00:06:04.816Z,9
2023-03-16T00:12:24.706Z,8.6
2023-03-16T00:18:15.665Z,7.8
2023-03-16T00:24:47.300Z,8.5
2023-03-16T00:30:49.414Z,8.3
2023-03-16T00:36:47.416Z,7.8
2023-03-16T00:42:58.583Z,7.2
2023-03-16T00:49:09.474Z,7.3
2023-03-16T01:01:35.145Z,6.5
2023-03-16T01:07:48.860Z,6.2
2023-03-16T01:13:47.431Z,6.3
2023-03-16T01:26:01.326Z,5.7
2023-03-16T01:32:12.527Z,6.2
2023-03-16T01:38:05.413Z,6
2023-03-16T01:44:27.790Z,6.4
2023-03-16T01:50:44.951Z,5.2
2023-03-16T01:56:49.133Z,5.5
2023-03-16T02:03:10.086Z,5
2023-03-16T02:09:00.019Z,4.8
2023-03-16T02:15:11.088Z,5.4
2023-03-16T02:21:03.816Z,5.5
2023-03-16T02:27:10.051Z,5.5
2023-03-16T02:34:03.006Z,6.2
2023-03-16T02:40:07.357Z,6.6
2023-03-16T02:46:14.731Z,6.7
2023-03-16T02:52:11.711Z,7.4
2023-03-16T03:04:11.652Z,7.3
2023-03-16T03:10:14.266Z,6.5
2023-03-16T03:16:08.477Z,6.7
2023-03-16T03:22:14.600Z,6.5
2023-03-16T03:28:19.880Z,6.3
2023-03-16T03:34:18.313Z,5.8
2023-03-16T03:40:16.031Z,5.5
2023-03-16T03:46:23.138Z,5.8
2023-03-16T03:52:19.380Z,6.2
2023-03-16T03:58:30.071Z,5.6
2023-03-16T04:04:31.076Z,5.3
2023-03-16T04:10:26.606Z,5.5
2023-03-16T04:16:25.605Z,5.1
2023-03-16T04:22:42.353Z,5.2
2023-03-16T04:28:34.713Z,5.5
2023-03-16T04:34:29.600Z,5.7
2023-03-16T04:40:41.912Z,6
2023-03-16T04:46:48.766Z,6.4
2023-03-16T04:52:53.015Z,6.4
2023-03-16T04:59:04.489Z,6.9
2023-03-16T05:05:09.790Z,6.9
2023-03-16T05:11:17.090Z,7.4
2023-03-16T05:17:24.644Z,7.4
2023-03-16T05:23:22.988Z,8.1
2023-03-16T05:30:26.809Z,8.7
2023-03-16T05:36:21.643Z,8.6
2023-03-16T05:42:11.824Z,9.2
2023-03-16T05:48:01.945Z,9.5
2023-03-16T05:53:51.215Z,9.6
2023-03-16T05:59:39.404Z,10.4
2023-03-16T06:05:29.008Z,9
2023-03-16T06:11:18.038Z,9
2023-03-16T06:17:09.532Z,9.4
2023-03-16T06:23:07.878Z,9
2023-03-16T06:29:01.120Z,9.5
2023-03-16T06:34:53.020Z,9.8
2023-03-16T06:40:44.404Z,9.7
2023-03-16T06:46:37.022Z,10.5
2023-03-16T06:52:28.506Z,9.8
2023-03-16T06:58:19.468Z,10.3
2023-03-16T07:04:09.549Z,9.1
2023-03-16T07:10:13.889Z,10.1
2023-03-16T07:16:08.580Z,9.5
2023-03-16T07:21:58.350Z,9.6
2023-03-16T07:27:50.714Z,9.3
2023-03-16T07:33:40.563Z,10
2023-03-16T07:39:31.415Z,10.2
2023-03-16T07:45:21.968Z,10
2023-03-16T07:51:11.540Z,10.1
2023-03-16T07:57:00.496Z,10.5
2023-03-16T08:02:50.748Z,11
2023-03-16T08:08:48.162Z,11.1
2023-03-16T08:14:37.327Z,11.4
2023-03-16T08:20:27.518Z,11.3
2023-03-16T08:26:18.561Z,12.4
2023-03-16T08:32:10.017Z,11.7
2023-03-16T08:38:01.530Z,12.3
2023-03-16T08:43:55.945Z,12.6
2023-03-16T08:49:48.867Z,11.8
2023-03-16T08:55:38.768Z,12
2023-03-16T09:01:28.615Z,12.1
2023-03-16T09:07:19.417Z,12.5
2023-03-16T09:13:09.714Z,12.7
2023-03-16T09:19:00.671Z,12.8
2023-03-16T09:24:51.862Z,12.5
2023-03-16T09:30:40.973Z,12.2
2023-03-16T09:36:33.433Z,12.5
2023-03-16T09:42:23.686Z,12.1
2023-03-16T09:48:16.262Z,11.8
2023-03-16T09:54:07.391Z,11.6
2023-03-16T09:59:58.368Z,11.7
2023-03-16T10:05:49.234Z,10.6
2023-03-16T10:11:40.401Z,10.4
2023-03-16T10:17:31.521Z,10.1
2023-03-16T10:23:22.802Z,9.3
2023-03-16T10:29:12.961Z,9
2023-03-16T10:35:03.777Z,9.1
2023-03-16T10:40:57.737Z,8.4
2023-03-16T10:46:49.536Z,8.1
2023-03-16T10:52:40.094Z,8
2023-03-16T10:58:34.070Z,7.7
2023-03-16T11:04:24.618Z,7.5
2023-03-16T11:10:15.054Z,8.1
2023-03-16T11:16:05.987Z,7.4
2023-03-16T11:21:59.115Z,7.9
2023-03-16T11:27:50.074Z,7.2
2023-03-16T11:33:41.105Z,7.3
2023-03-16T11:39:32.087Z,6.8
2023-03-16T11:45:22.973Z,6.9
2023-03-16T11:51:13.457Z,6.8
2023-03-16T11:57:04.822Z,6.6
2023-03-16T12:02:56.640Z,6.5
2023-03-16T12:08:47.508Z,5.5
2023-03-16T12:14:35.388Z,5.1
2023-03-16T12:20:26.116Z,4.8
2023-03-16T12:26:17.554Z,5
2023-03-16T12:32:08.556Z,4.1
2023-03-16T12:38:00.073Z,4.7
2023-03-16T12:43:51.288Z,10.1
2023-03-16T12:49:42.468Z,5
2023-03-16T12:55:35.654Z,4
2023-03-16T13:01:28.536Z,3.9
2023-03-16T13:07:19.306Z,4
2023-03-16T13:13:13.182Z,4.1
2023-03-16T13:19:05.115Z,4
2023-03-16T13:24:56.904Z,4.3
2023-03-16T13:30:50.412Z,4.3
2023-03-16T13:36:45.748Z,4.2
2023-03-16T13:42:39.970Z,3.6
2023-03-16T13:48:32.913Z,3.8
2023-03-16T13:54:24.586Z,3.9
2023-03-16T14:06:10.904Z,4
2023-03-16T14:12:02.604Z,4
2023-03-16T14:17:57.280Z,4
2023-03-16T14:24:01.209Z,4.1
2023-03-16T14:29:51.403Z,4.1
2023-03-16T14:35:44.562Z,4.3
2023-03-16T14:47:35.319Z,4.2
2023-03-16T15:06:04.204Z,3.9
2023-03-16T15:11:54.629Z,4.7
2023-03-16T15:23:50.405Z,4.6
2023-03-16T15:29:41.914Z,5.1
2023-03-16T15:35:38.061Z,5.2
2023-03-16T15:41:54.144Z,5.1
2023-03-16T15:54:03.834Z,5.5
2023-03-16T16:12:41.831Z,6.6
2023-03-16T16:25:25.839Z,6.1
2023-03-16T16:31:14.940Z,6.1
2023-03-16T16:37:08.542Z,5.8
2023-03-16T16:43:00.860Z,5.5
2023-03-16T16:49:07.145Z,5.1
2023-03-16T16:55:15.159Z,4.9
2023-03-16T17:01:29.910Z,4.9
2023-03-16T17:07:22.422Z,5
2023-03-16T17:13:13.233Z,4.7
2023-03-16T17:19:04.768Z,5
2023-03-16T17:24:59.556Z,5
2023-03-16T17:30:53.818Z,4.9
2023-03-16T17:36:57.168Z,5.1
2023-03-16T17:43:05.746Z,4.9
2023-03-16T17:49:09.749Z,5.1
2023-03-16T17:55:16.827Z,5.1
2023-03-16T18:01:33.208Z,4.7
2023-03-16T18:20:11.166Z,5.2
2023-03-16T18:39:06.827Z,5.6
2023-03-16T18:45:11.868Z,5.5
2023-03-16T18:51:06.555Z,5.7
2023-03-16T19:14:48.115Z,6.6
2023-03-16T19:21:18.223Z,6.8
2023-03-16T19:45:04.644Z,7
2023-03-16T20:03:06.903Z,7.1
2023-03-16T20:15:25.989Z,7.3
2023-03-16T20:21:27.657Z,7.2
2023-03-16T20:27:36.868Z,7.2
2023-03-16T21:59:29.418Z,4.8
2023-03-16T22:18:15.229Z,5.1
2023-03-16T22:24:33.831Z,5.4
2023-03-16T22:30:37.293Z,4.8
2023-03-16T22:36:44.140Z,5.1
2023-03-16T22:42:55.592Z,4.9
2023-03-16T22:55:18.537Z,4.6
2023-03-16T23:01:42.652Z,4.7
2023-03-16T23:25:11.572Z,4.4
2023-03-16T23:31:26.050Z,4.1
2023-03-16T23:37:17.913Z,4.9
2023-03-16T23:43:18.204Z,4.4
2023-03-16T23:49:26.590Z,4.5
2023-03-16T23:55:20.753Z,5.5
